Time;durP1;ratioP1;P1;durP2;ratioP2;P2;SDS_P1;SDS_P2;PMS_P1;PMS_P2;Temp;Humidity;BMP_temperature;BMP_pressure;BME280_temperature;BME280_humidity;BME280_pressure;Samples;Min_cycle;Max_cycle;Signal;HPM_P1;HPM_P2
2021/12/02 00:02:21;;;;;;;11.68;0.50;;;2.40;99.90;;;;;;5120615;28;20051;-75
2021/12/02 00:04:47;;;;;;;13.87;0.50;;;2.60;99.90;;;;;;5097775;28;20066;-74
2021/12/02 00:07:13;;;;;;;6.30;0.80;;;2.60;99.90;;;;;;5114390;28;20124;-74
2021/12/02 00:09:39;;;;;;;10.73;1.00;;;2.60;99.90;;;;;;5115198;28;20114;-73
2021/12/02 00:12:07;;;;;;;9.90;0.43;;;2.70;99.90;;;;;;5095854;28;20436;-73
2021/12/02 00:14:41;;;;;;;9.57;0.80;;;2.80;99.90;;;;;;5096290;28;20055;-73
2021/12/02 00:17:15;;;;;;;13.90;0.77;;;2.80;99.90;;;;;;5114011;28;20085;-73
2021/12/02 00:23:22;;;;;;;13.45;0.73;;;2.80;99.90;;;;;;5078907;28;20100;-73
2021/12/02 00:25:51;;;;;;;10.55;0.60;;;2.90;99.90;;;;;;5114124;28;20230;-73
2021/12/02 00:28:18;;;;;;;9.95;0.60;;;2.90;99.90;;;;;;5113250;28;20511;-74
2021/12/02 00:30:44;;;;;;;7.22;0.43;;;2.90;99.90;;;;;;5095429;28;20058;-73
2021/12/02 00:33:11;;;;;;;11.52;0.63;;;2.90;99.90;;;;;;5096131;28;20051;-73
2021/12/02 00:35:37;;;;;;;9.05;0.80;;;2.90;99.90;;;;;;5113434;28;20087;-73
2021/12/02 00:38:03;;;;;;;11.48;0.75;;;2.80;99.90;;;;;;5095191;28;20078;-73
2021/12/02 00:40:31;;;;;;;20.23;0.93;;;2.80;99.90;;;;;;5094736;28;20104;-74
2021/12/02 00:42:59;;;;;;;7.45;0.50;;;2.90;99.90;;;;;;5112975;28;20467;-74
2021/12/02 00:45:26;;;;;;;12.10;0.73;;;2.80;99.90;;;;;;5113173;28;20093;-73
2021/12/02 00:47:53;;;;;;;8.82;0.35;;;2.80;99.90;;;;;;5113207;28;20045;-73
2021/12/02 00:50:20;;;;;;;8.43;0.40;;;2.80;99.90;;;;;;5113549;28;20094;-73
2021/12/02 00:52:49;;;;;;;8.77;0.30;;;2.80;99.90;;;;;;5113069;28;20139;-73
2021/12/02 00:55:15;;;;;;;4.90;0.43;;;2.70;99.90;;;;;;5094926;28;20511;-73
2021/12/02 00:57:42;;;;;;;9.98;0.45;;;2.70;99.90;;;;;;5113027;28;20042;-73
2021/12/02 01:00:10;;;;;;;11.45;0.40;;;2.70;99.90;;;;;;5095715;28;20352;-73
2021/12/02 01:02:38;;;;;;;9.27;0.50;;;2.70;99.90;;;;;;5112930;28;20047;-73
2021/12/02 01:05:04;;;;;;;10.02;1.25;;;2.70;99.90;;;;;;5094695;28;20058;-73
2021/12/02 01:07:30;;;;;;;6.30;0.60;;;2.60;99.90;;;;;;5094686;28;20052;-75
2021/12/02 01:09:57;;;;;;;9.35;0.30;;;2.70;99.90;;;;;;5095400;28;20053;-73
2021/12/02 01:12:23;;;;;;;23.27;1.45;;;2.70;99.90;;;;;;5112888;28;20047;-73
2021/12/02 01:14:49;;;;;;;7.97;0.28;;;2.70;99.90;;;;;;5112770;28;20422;-75
2021/12/02 01:17:15;;;;;;;14.50;0.75;;;2.60;99.90;;;;;;5113356;28;20089;-74
2021/12/02 01:19:41;;;;;;;8.98;1.15;;;2.50;99.90;;;;;;5094515;28;20132;-74
2021/12/02 01:22:08;;;;;;;3.97;0.20;;;2.50;99.90;;;;;;5112932;28;20035;-72
2021/12/02 01:24:35;;;;;;;6.70;0.35;;;2.40;99.90;;;;;;5113303;28;20143;-73
2021/12/02 01:27:04;;;;;;;3.38;0.22;;;2.40;99.90;;;;;;5113219;28;20079;-74
2021/12/02 01:29:34;;;;;;;11.77;0.32;;;2.30;99.90;;;;;;5112984;28;20101;-73
2021/12/02 01:32:05;;;;;;;7.03;0.30;;;2.30;99.90;;;;;;5094953;28;20065;-74
2021/12/02 01:34:32;;;;;;;9.48;0.43;;;2.20;99.90;;;;;;5095627;28;20382;-74
2021/12/02 01:37:00;;;;;;;4.03;0.30;;;2.20;99.90;;;;;;5112836;28;20075;-72
2021/12/02 01:39:28;;;;;;;5.82;0.28;;;2.20;99.90;;;;;;5113132;28;20066;-75
2021/12/02 01:41:58;;;;;;;7.32;0.30;;;2.20;99.90;;;;;;5094991;28;20051;-74
2021/12/02 01:44:26;;;;;;;4.88;0.38;;;2.20;99.90;;;;;;5112861;28;20039;-75
2021/12/02 01:46:57;;;;;;;7.15;0.40;;;2.30;99.90;;;;;;5112808;28;20048;-75
2021/12/02 01:49:32;;;;;;;9.23;0.40;;;2.30;99.90;;;;;;5112311;28;20044;-75
2021/12/02 01:52:01;;;;;;;7.47;0.50;;;2.40;99.90;;;;;;5096575;28;20353;-74
2021/12/02 01:54:27;;;;;;;6.88;0.60;;;2.40;99.90;;;;;;5116617;28;20063;-73
2021/12/02 01:57:04;;;;;;;16.88;0.40;;;2.50;99.90;;;;;;5116781;28;20039;-73
2021/12/02 01:59:36;;;;;;;8.10;1.00;;;2.50;99.90;;;;;;5116360;28;20483;-76
2021/12/02 02:02:04;;;;;;;7.07;0.70;;;2.60;99.90;;;;;;5116962;28;20039;-73
2021/12/02 02:04:30;;;;;;;8.68;0.60;;;2.70;99.90;;;;;;5117353;28;20035;-74
2021/12/02 02:07:03;;;;;;;7.88;0.40;;;2.80;99.90;;;;;;5082071;28;20051;-73
2021/12/02 02:09:32;;;;;;;8.30;0.77;;;2.90;99.90;;;;;;5116772;28;20055;-73
2021/12/02 02:12:00;;;;;;;1.95;0.28;;;2.90;99.90;;;;;;5116042;28;20088;-72
2021/12/02 02:14:28;;;;;;;11.35;0.57;;;3.00;99.90;;;;;;5098466;28;20061;-74
2021/12/02 02:16:54;;;;;;;;;;;3.00;99.90;;;;;;5116737;28;20083;-71
2021/12/02 02:19:20;;;;;;;6.65;0.47;;;2.70;99.90;;;;;;5116792;28;20014;-73
2021/12/02 02:21:46;;;;;;;5.68;0.55;;;2.60;99.90;;;;;;5115812;28;20511;-74
2021/12/02 02:24:14;;;;;;;6.00;0.32;;;2.30;99.90;;;;;;5116447;28;20058;-73
2021/12/02 02:26:41;;;;;;;6.80;0.50;;;2.10;99.90;;;;;;5116139;28;20047;-73
2021/12/02 02:29:09;;;;;;;8.98;0.30;;;1.80;99.90;;;;;;5116307;28;20047;-72
2021/12/02 02:31:37;;;;;;;8.65;0.60;;;1.70;99.90;;;;;;5116276;28;20047;-72
2021/12/02 02:34:03;;;;;;;4.75;0.30;;;1.60;99.90;;;;;;5116314;28;20057;-74
2021/12/02 02:36:32;;;;;;;5.20;0.57;;;1.10;99.90;;;;;;5097737;28;20126;-73
2021/12/02 02:38:59;;;;;;;5.18;0.20;;;1.10;99.90;;;;;;5081021;28;20083;-73
2021/12/02 02:41:35;;;;;;;2.55;0.20;;;1.20;99.90;;;;;;5098586;28;20066;-73
2021/12/02 02:44:02;;;;;;;3.70;0.32;;;1.20;99.90;;;;;;5097760;28;20043;-73
2021/12/02 02:46:31;;;;;;;7.30;0.30;;;1.20;99.90;;;;;;5116272;28;20046;-72
2021/12/02 02:48:59;;;;;;;4.47;0.20;;;1.20;99.90;;;;;;5115505;28;20507;-73
2021/12/02 02:51:26;;;;;;;;;;;1.10;99.90;;;;;;5080922;28;20055;-72
2021/12/02 02:53:55;;;;;;;3.65;0.30;;;1.10;99.90;;;;;;5097332;28;19927;-73
2021/12/02 02:56:23;;;;;;;5.05;0.25;;;1.10;99.90;;;;;;5081778;28;20058;-73
2021/12/02 02:59:03;;;;;;;3.60;0.20;;;1.10;99.90;;;;;;5120507;28;20069;-73
2021/12/02 03:10:01;;;;;;;3.25;0.20;;;1.00;99.90;;;;;;5115982;28;20058;-73
2021/12/02 03:12:30;;;;;;;5.30;0.40;;;0.90;99.90;;;;;;5111139;28;20058;-72
2021/12/02 03:17:30;;;;;;;4.78;0.28;;;0.90;99.90;;;;;;5115350;28;20051;-72
2021/12/02 03:19:57;;;;;;;5.03;0.20;;;1.00;99.90;;;;;;5115579;28;20056;-73
2021/12/02 03:22:23;;;;;;;7.17;0.50;;;1.00;99.90;;;;;;5080204;28;20067;-72
2021/12/02 03:24:49;;;;;;;5.03;0.25;;;1.10;99.90;;;;;;5114780;28;20039;-73
2021/12/02 03:27:14;;;;;;;8.80;0.55;;;1.00;99.90;;;;;;5114805;28;20050;-72
2021/12/02 03:29:41;;;;;;;5.22;0.40;;;1.10;99.90;;;;;;5115025;28;20536;-73
2021/12/02 03:32:08;;;;;;;4.75;0.22;;;1.00;99.90;;;;;;5097002;28;20117;-73
2021/12/02 03:34:36;;;;;;;4.20;0.28;;;0.90;99.90;;;;;;5115849;28;20056;-73
2021/12/02 03:37:03;;;;;;;3.20;0.10;;;0.90;99.90;;;;;;5114890;28;20043;-73
2021/12/02 03:39:28;;;;;;;3.65;0.20;;;1.00;99.90;;;;;;5096996;28;20098;-73
2021/12/02 03:41:56;;;;;;;3.15;0.22;;;0.90;99.90;;;;;;5096583;28;20082;-73
2021/12/02 03:44:22;;;;;;;4.68;0.30;;;0.90;99.90;;;;;;5096713;28;20536;-72
2021/12/02 03:46:49;;;;;;;3.42;0.10;;;1.00;99.90;;;;;;5114333;28;20505;-73
2021/12/02 03:49:15;;;;;;;5.05;0.30;;;0.90;99.90;;;;;;5114479;28;20410;-73
2021/12/02 03:51:40;;;;;;;4.82;0.15;;;0.90;99.90;;;;;;5114568;28;20039;-73
2021/12/02 03:54:06;;;;;;;5.03;0.20;;;1.10;99.90;;;;;;5114398;28;20044;-73
2021/12/02 03:56:33;;;;;;;3.47;0.38;;;0.90;99.90;;;;;;5114478;28;20505;-73
2021/12/02 03:58:59;;;;;;;2.92;0.20;;;0.90;99.90;;;;;;5114323;28;20436;-73
2021/12/02 04:01:25;;;;;;;2.10;0.20;;;1.00;99.90;;;;;;5096096;28;20040;-73
2021/12/02 04:03:51;;;;;;;7.15;0.45;;;0.90;99.90;;;;;;5115175;28;20044;-73
2021/12/02 04:06:17;;;;;;;8.27;0.40;;;1.00;99.90;;;;;;5114713;28;20043;-73
2021/12/02 04:08:50;;;;;;;2.00;0.20;;;1.10;99.90;;;;;;5114430;28;20047;-73
2021/12/02 04:12:07;;;;;;;4.00;0.20;;;1.20;99.90;;;;;;5114388;28;20047;-73
2021/12/02 04:16:53;;;;;;;4.07;0.20;;;1.20;99.90;;;;;;5095463;28;20392;-73
2021/12/02 04:19:20;;;;;;;1.85;0.15;;;1.30;99.90;;;;;;5113953;28;20051;-73
2021/12/02 04:21:46;;;;;;;1.83;0.20;;;1.20;99.90;;;;;;5113870;28;20517;-73
2021/12/02 04:24:11;;;;;;;2.42;0.17;;;1.40;99.90;;;;;;5113856;28;20126;-72
2021/12/02 04:26:39;;;;;;;2.28;0.10;;;1.40;99.90;;;;;;5113992;28;20135;-72
2021/12/02 04:29:05;;;;;;;6.45;0.10;;;1.40;99.90;;;;;;5113691;28;20058;-72
2021/12/02 04:31:31;;;;;;;5.43;0.38;;;1.60;99.90;;;;;;5095740;28;20051;-72
2021/12/02 04:33:57;;;;;;;3.20;0.20;;;1.60;99.90;;;;;;5096093;28;20470;-72
2021/12/02 04:36:22;;;;;;;4.25;0.20;;;1.60;99.90;;;;;;5113718;28;20078;-73
2021/12/02 04:38:48;;;;;;;6.45;0.28;;;1.50;99.90;;;;;;5113273;28;20325;-73
2021/12/02 04:41:16;;;;;;;3.15;0.20;;;1.50;99.90;;;;;;5113706;28;20047;-73
2021/12/02 04:43:41;;;;;;;3.80;0.32;;;1.50;99.90;;;;;;5113382;28;20130;-73
2021/12/02 04:46:07;;;;;;;6.15;0.15;;;1.40;99.90;;;;;;5113957;28;20122;-73
2021/12/02 04:48:33;;;;;;;8.38;0.25;;;1.40;99.90;;;;;;5113573;28;20071;-73
2021/12/02 04:50:59;;;;;;;5.95;0.30;;;1.40;99.90;;;;;;5078790;28;20047;-73
2021/12/02 04:53:25;;;;;;;3.65;0.10;;;1.40;99.90;;;;;;5113257;28;20111;-72
2021/12/02 04:55:51;;;;;;;3.58;0.20;;;1.40;99.90;;;;;;5113803;28;20275;-72
2021/12/02 04:58:17;;;;;;;3.95;0.40;;;1.30;99.90;;;;;;5113732;28;20044;-72
2021/12/02 05:00:42;;;;;;;4.18;0.20;;;1.40;99.90;;;;;;5095344;28;20051;-72
2021/12/02 05:03:08;;;;;;;5.43;0.40;;;1.40;99.90;;;;;;5113314;28;20456;-72
2021/12/02 05:05:34;;;;;;;4.47;0.10;;;1.50;99.90;;;;;;5112939;28;20040;-72
2021/12/02 05:08:03;;;;;;;6.25;0.10;;;1.60;99.90;;;;;;5113061;28;20118;-72
2021/12/02 05:10:29;;;;;;;7.43;0.20;;;1.60;99.90;;;;;;5113328;28;20051;-72
2021/12/02 05:12:55;;;;;;;6.35;0.35;;;1.60;99.90;;;;;;5112985;28;20130;-73
2021/12/02 05:15:20;;;;;;;5.88;0.20;;;1.60;99.90;;;;;;5094817;28;20079;-72
2021/12/02 05:17:46;;;;;;;3.88;0.20;;;1.70;99.90;;;;;;5113188;28;20051;-73
2021/12/02 05:20:12;;;;;;;5.22;0.13;;;1.80;99.90;;;;;;5113045;28;20044;-73
2021/12/02 05:22:38;;;;;;;3.05;0.28;;;1.80;99.90;;;;;;5113048;28;20367;-74
2021/12/02 05:25:04;;;;;;;1.75;0.20;;;1.70;99.90;;;;;;5094633;28;20081;-73
2021/12/02 05:27:30;;;;;;;1.13;0.20;;;1.80;99.90;;;;;;5078398;28;20452;-73
2021/12/02 05:29:56;;;;;;;4.22;0.30;;;1.70;99.90;;;;;;5113601;28;20055;-74
2021/12/02 05:32:22;;;;;;;3.63;0.20;;;1.70;99.90;;;;;;5094713;28;20404;-73
2021/12/02 05:34:49;;;;;;;4.95;0.43;;;1.70;99.90;;;;;;5095101;28;20051;-73
2021/12/02 05:37:16;;;;;;;6.65;0.20;;;1.70;99.90;;;;;;5113015;28;20048;-73
2021/12/02 05:39:42;;;;;;;2.17;0.20;;;1.50;99.90;;;;;;5113144;28;20061;-74
2021/12/02 05:42:08;;;;;;;7.03;0.30;;;1.60;99.90;;;;;;5112445;28;20053;-73
2021/12/02 05:44:34;;;;;;;3.40;0.35;;;1.60;99.90;;;;;;5094717;28;20356;-74
2021/12/02 05:47:00;;;;;;;2.70;0.40;;;1.50;99.90;;;;;;5094748;28;20355;-73
2021/12/02 05:49:27;;;;;;;4.88;0.30;;;1.60;99.90;;;;;;5113378;28;20135;-73
2021/12/02 05:51:53;;;;;;;7.82;0.20;;;1.50;99.90;;;;;;5117674;28;20101;-72
2021/12/02 05:54:19;;;;;;;3.13;0.30;;;1.60;99.90;;;;;;5122328;28;20056;-72
2021/12/02 05:56:46;;;;;;;4.70;0.20;;;1.60;99.90;;;;;;5114551;28;20475;-74
2021/12/02 05:59:11;;;;;;;5.40;0.20;;;1.60;99.90;;;;;;5078230;28;20046;-73
2021/12/02 06:01:41;;;;;;;3.80;0.20;;;1.60;99.90;;;;;;5112823;28;20479;-73
2021/12/02 06:04:08;;;;;;;2.90;0.20;;;1.50;99.90;;;;;;5112662;28;20223;-72
2021/12/02 06:06:34;;;;;;;1.60;0.20;;;1.50;99.90;;;;;;5094511;28;20481;-72
2021/12/02 06:09:00;;;;;;;2.85;0.30;;;1.50;99.90;;;;;;5094286;28;20056;-71
2021/12/02 06:11:25;;;;;;;4.63;0.20;;;1.50;99.90;;;;;;5095823;28;20108;-71
2021/12/02 06:13:51;;;;;;;4.80;0.20;;;1.50;99.90;;;;;;5112243;28;20079;-72
2021/12/02 06:16:17;;;;;;;3.83;0.25;;;1.50;99.90;;;;;;5113077;28;20077;-73
2021/12/02 06:18:43;;;;;;;1.95;0.20;;;1.60;99.90;;;;;;5094502;28;20403;-72
2021/12/02 06:21:09;;;;;;;5.32;0.40;;;1.70;99.90;;;;;;5094470;28;20081;-73
2021/12/02 06:23:36;;;;;;;7.25;0.30;;;1.60;99.90;;;;;;5112564;28;20100;-72
2021/12/02 06:26:01;;;;;;;5.13;0.40;;;1.60;99.90;;;;;;5077992;28;20539;-72
2021/12/02 06:28:27;;;;;;;6.32;0.25;;;1.60;99.90;;;;;;5112858;28;20119;-72
2021/12/02 06:30:53;;;;;;;3.33;0.30;;;1.60;99.90;;;;;;5094320;28;20508;-73
2021/12/02 06:33:22;;;;;;;3.47;0.30;;;1.70;99.90;;;;;;5095108;28;20340;-73
2021/12/02 06:35:47;;;;;;;1.00;0.20;;;1.70;99.90;;;;;;5112472;28;20040;-72
2021/12/02 06:38:14;;;;;;;1.88;0.20;;;1.60;99.90;;;;;;5096144;28;20036;-72
2021/12/02 06:40:44;;;;;;;3.45;0.30;;;1.60;99.90;;;;;;5097835;28;20071;-74
2021/12/02 06:43:11;;;;;;;5.82;0.20;;;1.50;99.90;;;;;;5115517;28;20184;-72
2021/12/02 06:45:37;;;;;;;4.32;0.30;;;1.50;99.90;;;;;;5115966;28;20519;-72
2021/12/02 06:48:02;;;;;;;3.85;0.40;;;1.40;99.90;;;;;;5097450;28;20177;-71
2021/12/02 06:50:31;;;;;;;4.80;0.32;;;1.40;99.90;;;;;;5097885;28;20047;-71
2021/12/02 06:52:57;;;;;;;3.70;0.20;;;1.50;99.90;;;;;;5097323;28;20196;-71
2021/12/02 06:55:22;;;;;;;1.58;0.10;;;1.40;99.90;;;;;;5097387;28;20139;-71
2021/12/02 06:57:48;;;;;;;1.55;0.10;;;1.40;99.90;;;;;;5115475;28;20120;-72
2021/12/02 07:00:17;;;;;;;2.63;0.10;;;1.40;99.90;;;;;;5097521;28;20047;-72
2021/12/02 07:02:43;;;;;;;0.98;0.10;;;1.50;99.90;;;;;;5080462;28;20063;-71
2021/12/02 07:05:12;;;;;;;3.28;0.40;;;1.50;99.90;;;;;;5115482;28;20064;-72
2021/12/02 07:07:38;;;;;;;1.20;0.20;;;1.50;99.90;;;;;;5116226;28;20075;-72
2021/12/02 07:10:11;;;;;;;2.78;0.30;;;1.50;99.90;;;;;;5116036;28;20070;-71
2021/12/02 07:12:39;;;;;;;2.05;0.30;;;1.40;99.90;;;;;;5096848;28;20044;-72
2021/12/02 07:15:20;;;;;;;4.70;0.40;;;1.40;99.90;;;;;;5115101;28;20135;-71
2021/12/02 07:17:50;;;;;;;2.17;0.40;;;1.50;99.90;;;;;;5080317;28;20047;-73
2021/12/02 07:20:17;;;;;;;1.90;0.40;;;1.40;99.90;;;;;;5097315;28;20043;-73
2021/12/02 07:22:43;;;;;;;3.35;0.40;;;1.40;99.90;;;;;;5116005;28;20047;-73
2021/12/02 07:25:09;;;;;;;1.95;0.40;;;1.30;99.90;;;;;;5081162;28;20043;-72
2021/12/02 07:27:35;;;;;;;1.53;0.40;;;1.20;99.90;;;;;;5097611;28;20368;-71
2021/12/02 07:30:03;;;;;;;4.10;0.40;;;1.30;99.90;;;;;;5097410;28;20089;-72
2021/12/02 07:32:33;;;;;;;;;;;1.20;99.90;;;;;;5115904;28;20352;-71
2021/12/02 07:35:02;;;;;;;2.25;0.50;;;1.20;99.90;;;;;;5096864;28;19971;-72
2021/12/02 07:37:29;;;;;;;2.88;0.60;;;1.20;99.90;;;;;;5115298;28;20047;-71
2021/12/02 07:39:55;;;;;;;3.30;0.60;;;1.10;99.90;;;;;;5115045;28;20120;-71
2021/12/02 07:42:21;;;;;;;5.57;0.77;;;1.20;99.90;;;;;;5080783;28;20100;-72
2021/12/02 07:44:47;;;;;;;8.00;0.90;;;1.30;99.90;;;;;;5115024;28;20039;-72
2021/12/02 07:47:13;;;;;;;3.92;0.80;;;1.30;99.90;;;;;;5095708;28;20047;-72
2021/12/02 07:49:39;;;;;;;9.98;1.58;;;1.50;99.90;;;;;;5096231;28;20043;-71
2021/12/02 07:52:07;;;;;;;7.88;1.58;;;1.60;99.90;;;;;;5079030;28;20051;-72
2021/12/02 07:54:34;;;;;;;7.30;1.70;;;1.60;99.90;;;;;;5114456;28;20055;-72
2021/12/02 07:57:01;;;;;;;8.30;1.75;;;1.50;99.90;;;;;;5096503;28;20421;-72
2021/12/02 07:59:27;;;;;;;8.13;1.85;;;1.60;99.90;;;;;;5115244;28;20044;-72
2021/12/02 08:02:00;;;;;;;5.18;1.40;;;1.60;99.90;;;;;;5114189;28;20484;-71
2021/12/02 08:04:26;;;;;;;4.55;1.00;;;1.50;99.90;;;;;;5096350;28;20051;-72
2021/12/02 08:06:52;;;;;;;4.18;0.98;;;1.50;99.90;;;;;;5114362;28;20157;-72
2021/12/02 08:09:17;;;;;;;7.00;1.70;;;1.50;99.90;;;;;;5114129;28;20039;-71
2021/12/02 08:11:43;;;;;;;9.07;1.27;;;1.60;99.90;;;;;;5079089;28;20093;-72
2021/12/02 08:14:15;;;;;;;11.60;1.40;;;1.50;99.90;;;;;;5095618;28;20112;-72
2021/12/02 08:16:41;;;;;;;6.57;1.20;;;1.60;99.90;;;;;;5114080;28;20131;-71
2021/12/02 08:19:07;;;;;;;4.15;0.75;;;1.60;99.90;;;;;;5114215;28;20456;-72
2021/12/02 08:21:32;;;;;;;5.07;0.82;;;1.60;99.90;;;;;;5079195;28;20487;-72
2021/12/02 08:23:58;;;;;;;11.27;0.80;;;1.60;99.90;;;;;;5113857;28;20355;-72
2021/12/02 08:26:24;;;;;;;5.13;0.73;;;1.70;99.90;;;;;;5113889;28;20040;-72
2021/12/02 08:28:50;;;;;;;6.20;0.77;;;1.80;99.90;;;;;;5114062;28;20075;-73
2021/12/02 08:31:16;;;;;;;5.32;0.63;;;1.80;99.90;;;;;;5096294;28;20419;-72
2021/12/02 08:33:42;;;;;;;5.43;1.08;;;1.80;99.90;;;;;;5095544;28;20043;-72
2021/12/02 08:36:08;;;;;;;3.53;0.60;;;1.90;99.90;;;;;;5113821;28;20496;-72
2021/12/02 08:38:35;;;;;;;3.85;0.57;;;2.00;99.90;;;;;;5113850;28;20119;-72
2021/12/02 08:41:02;;;;;;;4.45;0.60;;;2.10;99.90;;;;;;5078888;28;20052;-72
2021/12/02 08:43:29;;;;;;;4.38;0.60;;;2.20;99.90;;;;;;5078711;28;20050;-71
2021/12/02 08:45:55;;;;;;;3.85;0.50;;;2.30;99.90;;;;;;5095586;28;20141;-72
2021/12/02 08:48:21;;;;;;;6.78;0.50;;;2.30;99.90;;;;;;5105597;28;20086;-71
2021/12/02 08:50:47;;;;;;;3.83;0.50;;;2.40;99.90;;;;;;5125505;28;20044;-73
2021/12/02 08:53:13;;;;;;;4.57;0.50;;;2.40;99.90;;;;;;5113605;28;20043;-71
2021/12/02 08:55:40;;;;;;;6.75;0.70;;;2.40;99.90;;;;;;5113776;28;20043;-71
2021/12/02 08:58:09;;;;;;;3.55;0.60;;;2.40;99.90;;;;;;5095344;28;20071;-72
2021/12/02 09:00:36;;;;;;;2.78;0.50;;;2.40;99.90;;;;;;5094703;28;20075;-71
2021/12/02 09:03:08;;;;;;;3.10;0.50;;;2.40;99.90;;;;;;5095539;28;20047;-71
2021/12/02 09:05:35;;;;;;;8.52;0.60;;;2.40;99.90;;;;;;5113547;28;20079;-71
2021/12/02 09:08:01;;;;;;;3.63;0.40;;;2.40;99.90;;;;;;5113311;28;20097;-71
2021/12/02 09:10:27;;;;;;;2.92;0.60;;;2.20;99.90;;;;;;5095483;28;20179;-71
2021/12/02 09:12:54;;;;;;;5.93;0.40;;;2.30;99.90;;;;;;5113360;28;20470;-71
2021/12/02 09:15:20;;;;;;;3.50;0.60;;;2.30;99.90;;;;;;5095879;28;20054;-72
2021/12/02 09:17:46;;;;;;;4.65;0.60;;;2.30;99.90;;;;;;5113158;28;20086;-71
2021/12/02 09:20:15;;;;;;;6.53;0.68;;;2.30;99.90;;;;;;5062479;28;20459;-71
2021/12/02 09:22:42;;;;;;;5.65;0.68;;;2.40;99.90;;;;;;5095254;28;20097;-71
2021/12/02 09:25:09;;;;;;;7.97;0.50;;;2.40;99.90;;;;;;5117150;28;20047;-72
2021/12/02 09:27:34;;;;;;;4.93;1.00;;;2.40;99.90;;;;;;5113974;28;20047;-72
2021/12/02 09:30:02;;;;;;;5.15;0.90;;;2.40;99.90;;;;;;5097549;28;20050;-72
2021/12/02 09:32:28;;;;;;;;;;;2.50;99.90;;;;;;5117039;28;20048;-72
2021/12/02 09:34:53;;;;;;;2.95;0.80;;;2.40;99.90;;;;;;5113566;28;19930;-72
2021/12/02 09:37:19;;;;;;;5.75;1.00;;;2.40;99.90;;;;;;5095348;28;20046;-71
2021/12/02 09:39:45;;;;;;;4.20;0.70;;;2.40;99.90;;;;;;5095329;28;20480;-72
2021/12/02 09:42:11;;;;;;;4.00;0.80;;;2.40;99.90;;;;;;5113829;28;20066;-72
2021/12/02 09:44:38;;;;;;;4.15;0.80;;;2.40;99.90;;;;;;5077838;28;20051;-72
2021/12/02 09:47:05;;;;;;;4.07;0.60;;;2.40;99.90;;;;;;5113084;28;20055;-72
2021/12/02 09:49:31;;;;;;;6.30;0.70;;;2.50;99.90;;;;;;5113968;28;20324;-71
2021/12/02 09:52:03;;;;;;;4.93;0.80;;;2.40;99.90;;;;;;5094778;28;20078;-71
2021/12/02 09:54:57;;;;;;;3.58;0.60;;;2.50;99.90;;;;;;5094531;28;20079;-72
2021/12/02 09:57:24;;;;;;;7.72;0.70;;;2.50;99.90;;;;;;5118782;28;20116;-73
2021/12/02 09:59:53;;;;;;;5.32;0.85;;;2.60;99.90;;;;;;5116121;28;20108;-72
2021/12/02 10:02:21;;;;;;;6.40;0.63;;;2.70;99.90;;;;;;5100177;28;20106;-72
2021/12/02 10:04:58;;;;;;;3.30;0.80;;;2.70;99.90;;;;;;5120479;28;20599;-72
2021/12/02 10:07:42;;;;;;;4.82;0.60;;;2.80;99.90;;;;;;5093108;28;20040;-71
2021/12/02 10:12:45;;;;;;;2.95;0.77;;;3.00;99.90;;;;;;5129885;28;20062;-72
2021/12/02 10:15:14;;;;;;;2.55;0.50;;;3.00;99.90;;;;;;5133957;28;20083;-72
2021/12/02 10:17:49;;;;;;;5.50;0.55;;;2.90;99.90;;;;;;5124773;28;20071;-72
2021/12/02 10:23:22;;;;;;;4.97;0.70;;;2.90;99.90;;;;;;5130274;28;20047;-72
2021/12/02 10:25:58;;;;;;;5.35;0.88;;;3.00;99.90;;;;;;5116563;28;20112;-72
2021/12/02 10:28:25;;;;;;;6.63;0.50;;;3.10;99.90;;;;;;5115577;28;20384;-73
2021/12/02 10:30:58;;;;;;;;;;;3.30;99.90;;;;;;5107452;28;20058;-72
2021/12/02 10:33:31;;;;;;;4.57;0.68;;;3.30;99.90;;;;;;5119520;28;20340;-73
2021/12/02 10:35:57;;;;;;;2.25;0.60;;;3.40;99.90;;;;;;5100358;28;20051;-71
2021/12/02 10:38:45;;;;;;;5.93;1.00;;;3.40;99.90;;;;;;5117098;28;20042;-71
2021/12/02 10:41:12;;;;;;;4.95;0.60;;;3.30;99.90;;;;;;5118084;28;20070;-72
2021/12/02 10:44:11;;;;;;;2.10;0.50;;;3.30;99.90;;;;;;5117816;28;20036;-72
2021/12/02 10:46:42;;;;;;;5.40;0.75;;;3.30;99.90;;;;;;5117223;28;20388;-72
2021/12/02 10:49:15;;;;;;;6.65;0.60;;;3.50;99.90;;;;;;5099066;28;20332;-71
2021/12/02 10:51:53;;;;;;;6.18;1.10;;;3.40;99.90;;;;;;5098721;28;20506;-71
2021/12/02 10:54:31;;;;;;;5.93;0.88;;;3.40;99.90;;;;;;5098074;28;20063;-74
2021/12/02 10:56:59;;;;;;;4.65;0.70;;;3.40;99.90;;;;;;5116844;28;20036;-74
2021/12/02 10:59:35;;;;;;;2.83;0.50;;;3.40;99.90;;;;;;5098479;28;20112;-72
2021/12/02 11:02:08;;;;;;;7.70;0.90;;;3.50;99.90;;;;;;5083119;28;20051;-72
2021/12/02 11:04:40;;;;;;;9.05;0.70;;;3.60;99.90;;;;;;5117278;28;20130;-72
2021/12/02 11:07:11;;;;;;;5.88;1.70;;;3.70;99.90;;;;;;5099985;28;20055;-71
2021/12/02 11:09:39;;;;;;;6.25;0.90;;;3.80;99.90;;;;;;5118459;28;20220;-70
2021/12/02 11:12:23;;;;;;;5.78;1.33;;;3.90;99.90;;;;;;5117274;28;20131;-74
2021/12/02 11:15:15;;;;;;;6.57;1.30;;;3.80;99.90;;;;;;5116877;28;20039;-72
2021/12/02 11:17:45;;;;;;;4.97;0.70;;;3.80;99.90;;;;;;5116134;28;20043;-72
2021/12/02 11:20:36;;;;;;;8.98;0.80;;;3.90;99.90;;;;;;5098419;28;20043;-71
2021/12/02 11:23:04;;;;;;;3.88;0.60;;;3.80;99.90;;;;;;5115833;28;20044;-71
2021/12/02 11:25:32;;;;;;;2.72;0.30;;;3.40;99.90;;;;;;5098132;28;20130;-71
2021/12/02 11:28:04;;;;;;;0.93;0.20;;;2.80;99.90;;;;;;5115916;28;20126;-72
2021/12/02 11:30:30;;;;;;;0.80;0.20;;;2.50;99.90;;;;;;5097897;28;20498;-73
2021/12/02 11:33:01;;;;;;;1.45;0.30;;;2.30;99.90;;;;;;5097854;28;20078;-72
2021/12/02 11:35:38;;;;;;;1.70;0.30;;;2.20;99.90;;;;;;5116683;28;20054;-73
2021/12/02 11:38:18;;;;;;;2.08;0.40;;;2.20;99.90;;;;;;5081028;28;20039;-72
2021/12/02 11:40:49;;;;;;;1.88;0.30;;;2.00;99.90;;;;;;5116142;28;20483;-72
2021/12/02 11:43:18;;;;;;;0.85;0.20;;;2.10;99.90;;;;;;5106149;28;20047;-71
2021/12/02 11:45:46;;;;;;;1.77;0.30;;;2.10;99.90;;;;;;5128546;28;20051;-72
2021/12/02 11:48:24;;;;;;;4.07;0.40;;;2.10;99.90;;;;;;5098170;28;20052;-72
2021/12/02 11:50:53;;;;;;;5.03;0.60;;;2.00;99.90;;;;;;5097358;28;20428;-72
2021/12/02 11:53:22;;;;;;;2.92;0.50;;;2.10;99.90;;;;;;5118696;28;20173;-73
2021/12/02 11:55:52;;;;;;;8.85;0.50;;;2.10;99.90;;;;;;5081636;28;20063;-73
2021/12/02 11:58:18;;;;;;;3.92;0.45;;;2.10;99.90;;;;;;5096157;28;20039;-73
2021/12/02 12:00:46;;;;;;;2.00;0.40;;;2.10;99.90;;;;;;5115431;28;20424;-73
2021/12/02 12:03:15;;;;;;;0.93;0.30;;;2.10;99.90;;;;;;5096665;28;20087;-72
2021/12/02 12:05:52;;;;;;;5.40;0.35;;;2.10;99.90;;;;;;5114814;28;20074;-72
2021/12/02 12:08:38;;;;;;;;;;;2.20;99.90;;;;;;5115331;28;20087;-71
2021/12/02 12:11:25;;;;;;;6.75;1.02;;;2.30;99.90;;;;;;5096488;28;19926;-72
2021/12/02 12:14:00;;;;;;;2.30;0.43;;;2.40;99.90;;;;;;5096332;28;20051;-73
2021/12/02 12:16:41;;;;;;;3.08;0.73;;;2.30;99.90;;;;;;5096440;28;20486;-72
2021/12/02 12:19:43;;;;;;;6.05;1.08;;;2.30;99.90;;;;;;5096679;28;20043;-72
2021/12/02 12:22:13;;;;;;;2.83;0.75;;;2.40;99.90;;;;;;5071648;28;20051;-72
2021/12/02 12:24:49;;;;;;;6.00;1.17;;;2.60;99.90;;;;;;5115047;28;20044;-72
2021/12/02 12:27:26;;;;;;;5.97;1.52;;;2.60;99.90;;;;;;5113795;28;20464;-73
2021/12/02 12:30:01;;;;;;;1.27;0.30;;;2.50;99.90;;;;;;5097380;28;20487;-71
2021/12/02 12:33:01;;;;;;;2.38;0.63;;;2.50;99.90;;;;;;5095828;28;20376;-72
2021/12/02 12:38:27;;;;;;;2.67;0.40;;;2.40;99.90;;;;;;5113850;28;20437;-73
2021/12/02 12:40:56;;;;;;;3.22;0.35;;;2.40;99.90;;;;;;5095718;28;20391;-73
2021/12/02 12:43:30;;;;;;;2.38;0.43;;;2.50;99.90;;;;;;5113830;28;20040;-71
2021/12/02 12:46:14;;;;;;;2.45;0.40;;;2.40;99.90;;;;;;5096009;28;20058;-73
2021/12/02 12:48:41;;;;;;;3.72;0.50;;;2.30;99.90;;;;;;5113765;28;20039;-74
2021/12/02 12:51:20;;;;;;;1.25;0.30;;;2.30;99.90;;;;;;5095485;28;20044;-73
2021/12/02 12:53:50;;;;;;;3.65;0.30;;;2.40;99.90;;;;;;5095366;28;20066;-74
2021/12/02 12:56:37;;;;;;;1.80;0.20;;;2.40;99.90;;;;;;5095872;28;20130;-73
2021/12/02 12:59:11;;;;;;;3.35;0.20;;;2.30;99.90;;;;;;5116446;28;20407;-75
2021/12/02 13:01:39;;;;;;;2.03;0.30;;;2.30;99.90;;;;;;5095772;28;20044;-74
2021/12/02 13:04:18;;;;;;;3.63;0.50;;;2.30;99.90;;;;;;5096035;28;20127;-72
2021/12/02 13:07:13;;;;;;;2.97;0.45;;;2.20;99.90;;;;;;5061994;28;20109;-73
2021/12/02 13:09:54;;;;;;;4.95;0.50;;;2.20;99.90;;;;;;5095305;28;20052;-74
2021/12/02 13:12:46;;;;;;;2.90;0.40;;;2.10;99.90;;;;;;5095284;28;20150;-73
2021/12/02 13:15:17;;;;;;;5.28;0.40;;;2.00;99.90;;;;;;5084136;28;20052;-73
2021/12/02 13:17:51;;;;;;;1.75;0.60;;;2.00;99.90;;;;;;5095431;28;20521;-73
2021/12/02 13:20:32;;;;;;;2.78;0.50;;;2.00;99.90;;;;;;5113503;28;20048;-73
2021/12/02 13:23:16;;;;;;;4.55;0.55;;;2.00;99.90;;;;;;5095333;28;20148;-74
2021/12/02 13:25:46;;;;;;;1.73;0.40;;;2.00;99.90;;;;;;5113217;28;20094;-73
2021/12/02 13:28:21;;;;;;;3.05;0.45;;;2.00;99.90;;;;;;5095578;28;20372;-74
2021/12/02 13:30:54;;;;;;;11.45;0.60;;;2.10;99.90;;;;;;5094998;28;20036;-73
2021/12/02 13:33:34;;;;;;;2.15;0.30;;;2.10;99.90;;;;;;5113146;28;20047;-74
2021/12/02 13:36:02;;;;;;;1.25;0.28;;;2.00;99.90;;;;;;5113122;28;20058;-74